x

Keaton Beach, Fl (ktnf1) Weather Station

3:00pm - Tue 31st May 2016 All times are CDT. -5 hours from GMT.

  • Wind
    15mph, 17mph gusts
  • Air Temp 81°f
  • Sea Pressure 1012.6mb
  • Keaton Beach, Fl
  • Keaton Beach, Fl

More Historic Weather Station data

Upgrade to MSW Pro to gain access to the past 30 days of data for over 8000 Wavebouys and Weather Stations around the globe.

Join Pro

Comparision Forecast

View Surf forecast
   
Tue 05/31 3:00pm 15 17 mph 1012.6mb 81f
2:00pm 10 13 mph 1013.7mb 81f
1:00pm 9 10 mph 1014mb 80f
12:00pm 8 10 mph 1014.3mb 81f
11:00am 7 9 mph 1014.6mb 81f
10:00am 7 9 mph 1014.7mb 81f
9:00am 6 8 mph 1014.7mb 81f
8:00am 10 13 mph 1014.5mb 80f
7:00am 8 11 mph 1014mb 80f
6:00am 9 11 mph 1013.4mb 79f
5:00am 11 13 mph 1012.8mb 80f
4:00am 9 11 mph 1012.6mb 80f
3:00am 9 10 mph 1012.5mb 80f
2:00am 6 7 mph 1012.8mb 80f
1:00am 8 9 mph 1013.2mb 80f
12:00am 8 9 mph 1013.8mb 80f
Mon 05/30 11:00pm 13 14 mph 1014mb 80f
10:00pm 13 15 mph 1014.2mb 80f
9:00pm 14 15 mph 1013.8mb 81f
8:00pm 14 17 mph 1014.1mb 81f
7:00pm 13 14 mph 1013.7mb 80f
6:00pm 6 9 mph 1013.4mb 82f
5:00pm 17 20 mph 1013.1mb 82f
4:00pm 22 23 mph 1012.7mb 81f
3:00pm 17 18 mph 1013.5mb 82f
2:00pm 16 18 mph 1014mb 82f
1:00pm 13 15 mph 1014.6mb 82f
12:00pm 10 11 mph 1015.3mb 81f
11:00am 7 8 mph 1016mb 82f
10:00am 6 7 mph 1016mb 82f
9:00am 3 7 mph 1016.1mb 82f
8:00am 6 8 mph 1016.2mb 79f
7:00am 5 6 mph 1015.6mb 76f
6:00am 6 7 mph 1015.4mb 76f
5:00am 7 11 mph 1015mb 78f
4:00am 3 7 mph 1014.9mb 77f
3:00am 10 11 mph 1014.9mb 80f
2:00am  -  2 mph 1014.9mb 77f
1:00am 3 5 mph 1015.6mb 79f
12:00am 11 15 mph 1016.1mb 81f
Sun 05/29 11:00pm 9 11 mph 1016.6mb 81f
10:00pm 9 10 mph 1016.7mb 82f
9:00pm 9 10 mph 1016.4mb 81f
8:00pm 10 11 mph 1015.8mb 80f
7:00pm 6 8 mph 1015.6mb 81f
6:00pm 11 13 mph 1015.7mb 81f
5:00pm 10 11 mph 1015.8mb 81f
4:00pm 10 11 mph 1016.1mb 80f
3:00pm 11 13 mph 1017.1mb 80f
2:00pm 10 14 mph 1017.5mb 80f
1:00pm 8 10 mph 1018mb 79f
12:00pm 10 11 mph 1018.5mb 79f
11:00am 9 10 mph 1018.7mb 79f
10:00am 10 11 mph 1018.8mb 79f
9:00am 5 7 mph 1018.6mb 79f
8:00am 8 10 mph 1018.4mb 76f
7:00am 8 10 mph 1017.8mb 73f
6:00am 8 10 mph 1017.5mb 71f
5:00am 7 9 mph 1017.1mb 71f
4:00am 7 8 mph 1016.6mb 71f
3:00am 5 6 mph 1016.5mb 72f
2:00am 3 5 mph 1016.5mb 72f
1:00am 2 3 mph 1016.8mb 75f
12:00am 2
mph
1017.2mb 76f
Sat 05/28 11:00pm 5 8 mph 1017.4mb 78f
10:00pm 13 16 mph 1017.1mb 81f
9:00pm 14 17 mph 1016.7mb 79f
8:00pm 14 15 mph 1016.4mb 80f
7:00pm 16 18 mph 1016.4mb 80f
6:00pm 14 15 mph 1015.8mb 80f
5:00pm 13 14 mph 1015.4mb 80f
4:00pm 11 14 mph 1015.7mb 80f
3:00pm 14 15 mph 1016.1mb 80f
2:00pm 10 11 mph 1016.2mb 79f
1:00pm 10 11 mph 1017mb 79f
12:00pm 9 10 mph 1017.7mb 79f
11:00am 8 9 mph 1018.2mb 78f
10:00am 3 5 mph 1018.3mb 79f
9:00am 9 10 mph 1018.4mb 77f
8:00am 5 7 mph 1018.3mb 74f
7:00am 8 10 mph 1017.6mb 70f
6:00am 5 7 mph 1017.3mb 67f
5:00am 5 7 mph 1016.7mb 67f
4:00am 3
mph
1016.3mb 68f
3:00am 7 9 mph 1015.9mb 69f
2:00am 3 5 mph 1016.2mb 69f
1:00am 5 7 mph 1016.3mb 71f
12:00am 6 8 mph 1016.4mb 72f
Fri 05/27 11:00pm 7 9 mph 1016.6mb 73f
10:00pm 8 9 mph 1016mb 75f